Saint Thomas, Canada
Current Conditions -  °F | °C
As of 1:00 PM on Thursday 27 Nov 2014 (Local Time) from CYXU Reporting Station
Broken Clouds Broken Clouds  
Wind Chill: -4°   Ceiling: 2800
Heat Index:   Visibility: 15mi
Dew Point: -4°   Wind: 9mph
Humidity: 75%   Direction: 280°W
Pressure: 30.05"   Gusts: NA
Location:  42.78°N, 81.18°W
Report Text: CYXU 271800Z 28008KT 15SM BKN028 BKN070 00/M04 A3005 RMK SC6AC1 SLP188
Loading
Personal Weather Stations






























Interactive Weather Map New forecast layout! Learn more

10-Day Weather Forecast

Advertisements
Track Severe Weather on mobile